< < Back
Terminal Aerodrome Forecast


Current Version              Previous Versions:   1  2  3  4  5  6  7  8  9  

Terminal Aerodrome Forecast

364
FTUS44 KBMX 230528
TAFANB
TAF
KANB 230528Z 2306/2406 VRB03KT P6SM BKN250
      TEMPO 2309/2312 3SM BR SCT015
     FM231400 29006KT P6SM SCT040 BKN150=

Latest METAR

941
SAUS70 KWBC 240400 RRB
MTRANB
METAR KANB 240353Z AUTO 00000KT 10SM FEW055 24/22 A3021 RMK AO2 SLP220
T02440217


USA.gov is the U.S. government's official web portal to all federal, state and local government web resources and services.